sensor_id;sensor_type;location;lat;lon;timestamp;P1;durP1;ratioP1;P2;durP2;ratioP2
11522;SDS011;70090;43.208;27.904;2024-03-22T00:02:17;8.00;;;7.20;;
11522;SDS011;70090;43.208;27.904;2024-03-22T00:04:43;8.73;;;7.10;;
11522;SDS011;70090;43.208;27.904;2024-03-22T00:07:10;9.60;;;7.50;;
11522;SDS011;70090;43.208;27.904;2024-03-22T00:09:36;8.60;;;7.37;;
11522;SDS011;70090;43.208;27.904;2024-03-22T00:12:03;8.67;;;7.77;;
11522;SDS011;70090;43.208;27.904;2024-03-22T00:14:30;8.47;;;7.47;;
11522;SDS011;70090;43.208;27.904;2024-03-22T00:16:58;8.43;;;7.47;;
11522;SDS011;70090;43.208;27.904;2024-03-22T00:19:24;8.13;;;6.93;;
11522;SDS011;70090;43.208;27.904;2024-03-22T00:21:51;8.80;;;7.37;;
11522;SDS011;70090;43.208;27.904;2024-03-22T00:24:17;8.33;;;7.43;;
11522;SDS011;70090;43.208;27.904;2024-03-22T00:26:44;9.13;;;7.53;;
11522;SDS011;70090;43.208;27.904;2024-03-22T00:29:10;8.00;;;7.20;;
11522;SDS011;70090;43.208;27.904;2024-03-22T00:31:37;8.37;;;7.40;;
11522;SDS011;70090;43.208;27.904;2024-03-22T00:34:05;9.17;;;7.70;;
11522;SDS011;70090;43.208;27.904;2024-03-22T00:36:32;8.50;;;7.60;;
11522;SDS011;70090;43.208;27.904;2024-03-22T00:38:58;9.20;;;8.00;;
11522;SDS011;70090;43.208;27.904;2024-03-22T00:41:25;8.77;;;7.50;;
11522;SDS011;70090;43.208;27.904;2024-03-22T00:43:51;8.57;;;7.30;;
11522;SDS011;70090;43.208;27.904;2024-03-22T00:46:18;9.60;;;7.50;;
11522;SDS011;70090;43.208;27.904;2024-03-22T00:48:44;8.33;;;7.43;;
11522;SDS011;70090;43.208;27.904;2024-03-22T00:51:13;8.33;;;7.33;;
11522;SDS011;70090;43.208;27.904;2024-03-22T00:53:38;8.40;;;7.50;;
11522;SDS011;70090;43.208;27.904;2024-03-22T00:56:06;8.60;;;7.70;;
11522;SDS011;70090;43.208;27.904;2024-03-22T00:58:32;8.50;;;7.60;;
11522;SDS011;70090;43.208;27.904;2024-03-22T01:00:59;8.67;;;7.77;;
11522;SDS011;70090;43.208;27.904;2024-03-22T01:03:25;9.47;;;7.70;;
11522;SDS011;70090;43.208;27.904;2024-03-22T01:05:52;8.50;;;7.60;;
11522;SDS011;70090;43.208;27.904;2024-03-22T01:08:19;8.87;;;7.70;;
11522;SDS011;70090;43.208;27.904;2024-03-22T01:10:46;8.47;;;7.53;;
11522;SDS011;70090;43.208;27.904;2024-03-22T01:13:12;8.73;;;7.80;;
11522;SDS011;70090;43.208;27.904;2024-03-22T01:15:39;9.53;;;8.20;;
11522;SDS011;70090;43.208;27.904;2024-03-22T01:18:05;10.07;;;8.10;;
11522;SDS011;70090;43.208;27.904;2024-03-22T01:20:32;9.30;;;7.97;;
11522;SDS011;70090;43.208;27.904;2024-03-22T01:22:59;9.00;;;7.60;;
11522;SDS011;70090;43.208;27.904;2024-03-22T01:25:28;8.70;;;7.20;;
11522;SDS011;70090;43.208;27.904;2024-03-22T01:27:55;10.17;;;7.07;;
11522;SDS011;70090;43.208;27.904;2024-03-22T01:30:22;9.23;;;7.70;;
11522;SDS011;70090;43.208;27.904;2024-03-22T01:32:48;8.30;;;7.00;;
11522;SDS011;70090;43.208;27.904;2024-03-22T01:35:15;8.87;;;7.37;;
11522;SDS011;70090;43.208;27.904;2024-03-22T01:37:41;8.00;;;7.20;;
11522;SDS011;70090;43.208;27.904;2024-03-22T01:40:08;8.70;;;7.27;;
11522;SDS011;70090;43.208;27.904;2024-03-22T01:42:37;8.23;;;7.33;;
11522;SDS011;70090;43.208;27.904;2024-03-22T01:45:04;9.03;;;7.60;;
11522;SDS011;70090;43.208;27.904;2024-03-22T01:47:31;9.63;;;8.00;;
11522;SDS011;70090;43.208;27.904;2024-03-22T01:49:58;9.30;;;8.00;;
11522;SDS011;70090;43.208;27.904;2024-03-22T01:52:24;9.37;;;8.03;;
11522;SDS011;70090;43.208;27.904;2024-03-22T01:54:51;8.90;;;8.00;;
11522;SDS011;70090;43.208;27.904;2024-03-22T01:57:17;9.03;;;7.77;;
11522;SDS011;70090;43.208;27.904;2024-03-22T01:59:46;9.43;;;8.03;;
11522;SDS011;70090;43.208;27.904;2024-03-22T02:02:17;11.97;;;8.57;;
11522;SDS011;70090;43.208;27.904;2024-03-22T02:04:44;11.47;;;8.60;;
11522;SDS011;70090;43.208;27.904;2024-03-22T02:07:10;10.43;;;8.27;;
11522;SDS011;70090;43.208;27.904;2024-03-22T02:09:37;11.57;;;8.87;;
11522;SDS011;70090;43.208;27.904;2024-03-22T02:12:03;12.07;;;9.73;;
11522;SDS011;70090;43.208;27.904;2024-03-22T02:14:30;11.00;;;9.27;;
11522;SDS011;70090;43.208;27.904;2024-03-22T02:16:58;11.30;;;9.43;;
11522;SDS011;70090;43.208;27.904;2024-03-22T02:19:25;11.63;;;9.77;;
11522;SDS011;70090;43.208;27.904;2024-03-22T02:21:51;13.80;;;10.50;;
11522;SDS011;70090;43.208;27.904;2024-03-22T02:24:19;11.83;;;9.80;;
11522;SDS011;70090;43.208;27.904;2024-03-22T02:26:45;13.00;;;10.47;;
11522;SDS011;70090;43.208;27.904;2024-03-22T02:29:12;14.07;;;10.30;;
11522;SDS011;70090;43.208;27.904;2024-03-22T02:31:38;12.33;;;10.57;;
11522;SDS011;70090;43.208;27.904;2024-03-22T02:34:05;12.10;;;9.90;;
11522;SDS011;70090;43.208;27.904;2024-03-22T02:36:31;12.60;;;9.63;;
11522;SDS011;70090;43.208;27.904;2024-03-22T02:38:58;12.97;;;10.17;;
11522;SDS011;70090;43.208;27.904;2024-03-22T02:41:26;13.40;;;10.33;;
11522;SDS011;70090;43.208;27.904;2024-03-22T02:43:53;13.63;;;9.87;;
11522;SDS011;70090;43.208;27.904;2024-03-22T02:46:19;11.77;;;9.60;;
11522;SDS011;70090;43.208;27.904;2024-03-22T02:48:46;11.90;;;9.80;;
11522;SDS011;70090;43.208;27.904;2024-03-22T02:51:12;12.27;;;10.40;;
11522;SDS011;70090;43.208;27.904;2024-03-22T02:53:39;12.03;;;9.67;;
11522;SDS011;70090;43.208;27.904;2024-03-22T02:56:05;13.53;;;9.60;;
11522;SDS011;70090;43.208;27.904;2024-03-22T02:58:34;12.43;;;9.90;;
11522;SDS011;70090;43.208;27.904;2024-03-22T03:01:01;13.97;;;10.47;;
11522;SDS011;70090;43.208;27.904;2024-03-22T03:03:28;12.57;;;10.33;;
11522;SDS011;70090;43.208;27.904;2024-03-22T03:05:54;13.83;;;10.83;;
11522;SDS011;70090;43.208;27.904;2024-03-22T03:08:22;13.10;;;10.50;;
11522;SDS011;70090;43.208;27.904;2024-03-22T03:10:48;13.77;;;11.17;;
11522;SDS011;70090;43.208;27.904;2024-03-22T03:13:15;12.70;;;10.37;;
11522;SDS011;70090;43.208;27.904;2024-03-22T03:15:42;12.73;;;10.93;;
11522;SDS011;70090;43.208;27.904;2024-03-22T03:18:09;14.00;;;11.20;;
11522;SDS011;70090;43.208;27.904;2024-03-22T03:20:36;12.87;;;10.17;;
11522;SDS011;70090;43.208;27.904;2024-03-22T03:23:03;14.60;;;11.20;;
11522;SDS011;70090;43.208;27.904;2024-03-22T03:25:30;13.53;;;10.87;;
11522;SDS011;70090;43.208;27.904;2024-03-22T03:27:56;13.43;;;10.97;;
11522;SDS011;70090;43.208;27.904;2024-03-22T03:30:23;14.33;;;11.00;;
11522;SDS011;70090;43.208;27.904;2024-03-22T03:32:50;13.33;;;10.07;;
11522;SDS011;70090;43.208;27.904;2024-03-22T03:35:17;13.27;;;10.10;;
11522;SDS011;70090;43.208;27.904;2024-03-22T03:37:43;14.23;;;10.80;;
11522;SDS011;70090;43.208;27.904;2024-03-22T03:40:11;12.60;;;9.70;;
11522;SDS011;70090;43.208;27.904;2024-03-22T03:42:37;12.50;;;10.00;;
11522;SDS011;70090;43.208;27.904;2024-03-22T03:45:04;13.47;;;10.00;;
11522;SDS011;70090;43.208;27.904;2024-03-22T03:47:30;14.43;;;10.43;;
11522;SDS011;70090;43.208;27.904;2024-03-22T03:49:59;14.13;;;10.40;;
11522;SDS011;70090;43.208;27.904;2024-03-22T03:52:25;12.57;;;10.47;;
11522;SDS011;70090;43.208;27.904;2024-03-22T03:54:52;13.87;;;10.07;;
11522;SDS011;70090;43.208;27.904;2024-03-22T03:57:18;13.00;;;10.10;;
11522;SDS011;70090;43.208;27.904;2024-03-22T03:59:45;13.10;;;10.10;;
11522;SDS011;70090;43.208;27.904;2024-03-22T04:02:11;12.97;;;9.73;;
11522;SDS011;70090;43.208;27.904;2024-03-22T04:04:38;13.93;;;10.80;;
11522;SDS011;70090;43.208;27.904;2024-03-22T04:07:06;12.03;;;9.73;;
11522;SDS011;70090;43.208;27.904;2024-03-22T04:09:33;14.03;;;9.97;;
11522;SDS011;70090;43.208;27.904;2024-03-22T04:11:59;12.47;;;10.37;;
11522;SDS011;70090;43.208;27.904;2024-03-22T04:14:26;13.47;;;10.47;;
11522;SDS011;70090;43.208;27.904;2024-03-22T04:16:52;13.97;;;10.83;;
11522;SDS011;70090;43.208;27.904;2024-03-22T04:19:21;13.13;;;10.40;;
11522;SDS011;70090;43.208;27.904;2024-03-22T04:21:47;11.87;;;10.43;;
11522;SDS011;70090;43.208;27.904;2024-03-22T04:24:16;12.50;;;10.37;;
11522;SDS011;70090;43.208;27.904;2024-03-22T04:26:42;13.70;;;10.00;;
11522;SDS011;70090;43.208;27.904;2024-03-22T04:29:09;14.33;;;11.00;;
11522;SDS011;70090;43.208;27.904;2024-03-22T04:31:35;14.13;;;10.90;;
11522;SDS011;70090;43.208;27.904;2024-03-22T04:34:02;14.93;;;11.47;;
11522;SDS011;70090;43.208;27.904;2024-03-22T04:36:30;16.33;;;12.63;;
11522;SDS011;70090;43.208;27.904;2024-03-22T04:38:58;15.20;;;11.50;;
11522;SDS011;70090;43.208;27.904;2024-03-22T04:41:26;13.80;;;11.27;;
11522;SDS011;70090;43.208;27.904;2024-03-22T04:43:53;14.60;;;11.37;;
11522;SDS011;70090;43.208;27.904;2024-03-22T04:46:20;14.30;;;10.80;;
11522;SDS011;70090;43.208;27.904;2024-03-22T04:48:47;12.40;;;10.30;;
11522;SDS011;70090;43.208;27.904;2024-03-22T04:51:13;14.57;;;11.00;;
11522;SDS011;70090;43.208;27.904;2024-03-22T04:53:40;13.97;;;11.27;;
11522;SDS011;70090;43.208;27.904;2024-03-22T04:56:06;16.50;;;12.73;;
11522;SDS011;70090;43.208;27.904;2024-03-22T04:58:36;16.13;;;12.43;;
11522;SDS011;70090;43.208;27.904;2024-03-22T05:01:02;19.90;;;13.20;;
11522;SDS011;70090;43.208;27.904;2024-03-22T05:03:29;16.33;;;11.83;;
11522;SDS011;70090;43.208;27.904;2024-03-22T05:05:55;17.13;;;12.73;;
11522;SDS011;70090;43.208;27.904;2024-03-22T05:08:22;16.97;;;11.50;;
11522;SDS011;70090;43.208;27.904;2024-03-22T05:10:48;16.03;;;12.07;;
11522;SDS011;70090;43.208;27.904;2024-03-22T05:13:15;14.93;;;11.47;;
11522;SDS011;70090;43.208;27.904;2024-03-22T05:15:43;17.67;;;13.70;;
11522;SDS011;70090;43.208;27.904;2024-03-22T05:18:10;15.07;;;12.00;;
11522;SDS011;70090;43.208;27.904;2024-03-22T05:20:36;15.47;;;12.17;;
11522;SDS011;70090;43.208;27.904;2024-03-22T05:23:03;14.97;;;11.40;;
11522;SDS011;70090;43.208;27.904;2024-03-22T05:25:29;17.23;;;12.60;;
11522;SDS011;70090;43.208;27.904;2024-03-22T05:27:56;12.90;;;10.73;;
11522;SDS011;70090;43.208;27.904;2024-03-22T05:30:22;16.00;;;11.40;;
11522;SDS011;70090;43.208;27.904;2024-03-22T05:32:50;13.80;;;10.60;;
11522;SDS011;70090;43.208;27.904;2024-03-22T05:35:17;14.27;;;11.77;;
11522;SDS011;70090;43.208;27.904;2024-03-22T05:37:44;14.77;;;11.27;;
11522;SDS011;70090;43.208;27.904;2024-03-22T05:40:10;19.37;;;14.13;;
11522;SDS011;70090;43.208;27.904;2024-03-22T05:42:38;14.30;;;11.20;;
11522;SDS011;70090;43.208;27.904;2024-03-22T05:45:04;16.40;;;12.93;;
11522;SDS011;70090;43.208;27.904;2024-03-22T05:47:32;15.80;;;12.27;;
11522;SDS011;70090;43.208;27.904;2024-03-22T05:50:00;18.03;;;13.47;;
11522;SDS011;70090;43.208;27.904;2024-03-22T05:52:27;19.10;;;13.30;;
11522;SDS011;70090;43.208;27.904;2024-03-22T05:54:53;14.37;;;10.90;;
11522;SDS011;70090;43.208;27.904;2024-03-22T05:57:20;14.20;;;11.43;;
11522;SDS011;70090;43.208;27.904;2024-03-22T05:59:46;15.13;;;10.77;;
11522;SDS011;70090;43.208;27.904;2024-03-22T06:02:14;14.43;;;11.43;;
11522;SDS011;70090;43.208;27.904;2024-03-22T06:04:40;15.37;;;11.27;;
11522;SDS011;70090;43.208;27.904;2024-03-22T06:07:09;12.83;;;10.63;;
11522;SDS011;70090;43.208;27.904;2024-03-22T06:09:35;17.83;;;11.30;;
11522;SDS011;70090;43.208;27.904;2024-03-22T06:12:10;16.10;;;11.03;;
11522;SDS011;70090;43.208;27.904;2024-03-22T06:14:36;13.57;;;10.17;;
11522;SDS011;70090;43.208;27.904;2024-03-22T06:17:04;13.63;;;10.63;;
11522;SDS011;70090;43.208;27.904;2024-03-22T06:19:30;13.10;;;10.50;;
11522;SDS011;70090;43.208;27.904;2024-03-22T06:21:57;12.20;;;10.37;;
11522;SDS011;70090;43.208;27.904;2024-03-22T06:24:24;13.90;;;11.67;;
11522;SDS011;70090;43.208;27.904;2024-03-22T06:26:51;12.47;;;10.57;;
11522;SDS011;70090;43.208;27.904;2024-03-22T06:29:17;14.40;;;10.67;;
11522;SDS011;70090;43.208;27.904;2024-03-22T06:31:44;16.90;;;12.60;;
11522;SDS011;70090;43.208;27.904;2024-03-22T06:34:10;13.43;;;10.90;;
11522;SDS011;70090;43.208;27.904;2024-03-22T06:36:37;19.80;;;12.70;;
11522;SDS011;70090;43.208;27.904;2024-03-22T06:39:03;15.03;;;11.90;;
11522;SDS011;70090;43.208;27.904;2024-03-22T06:41:34;17.23;;;12.03;;
11522;SDS011;70090;43.208;27.904;2024-03-22T06:44:00;13.30;;;10.60;;
11522;SDS011;70090;43.208;27.904;2024-03-22T06:46:27;13.47;;;9.53;;
11522;SDS011;70090;43.208;27.904;2024-03-22T06:48:53;21.20;;;11.30;;
11522;SDS011;70090;43.208;27.904;2024-03-22T06:51:21;16.67;;;12.17;;
11522;SDS011;70090;43.208;27.904;2024-03-22T06:53:47;14.87;;;10.80;;
11522;SDS011;70090;43.208;27.904;2024-03-22T06:56:14;12.17;;;8.70;;
11522;SDS011;70090;43.208;27.904;2024-03-22T06:58:41;12.10;;;10.00;;
11522;SDS011;70090;43.208;27.904;2024-03-22T07:01:09;14.07;;;10.30;;
11522;SDS011;70090;43.208;27.904;2024-03-22T07:03:35;12.07;;;10.03;;
11522;SDS011;70090;43.208;27.904;2024-03-22T07:06:02;12.67;;;8.87;;
11522;SDS011;70090;43.208;27.904;2024-03-22T07:08:28;12.70;;;9.07;;
11522;SDS011;70090;43.208;27.904;2024-03-22T07:10:55;12.93;;;10.07;;
11522;SDS011;70090;43.208;27.904;2024-03-22T07:13:21;11.87;;;9.87;;
11522;SDS011;70090;43.208;27.904;2024-03-22T07:15:50;13.50;;;9.90;;
11522;SDS011;70090;43.208;27.904;2024-03-22T07:18:16;14.47;;;9.40;;
11522;SDS011;70090;43.208;27.904;2024-03-22T07:20:44;13.17;;;8.53;;
11522;SDS011;70090;43.208;27.904;2024-03-22T07:23:11;13.27;;;10.00;;
11522;SDS011;70090;43.208;27.904;2024-03-22T07:25:38;18.33;;;11.03;;
11522;SDS011;70090;43.208;27.904;2024-03-22T07:28:04;13.07;;;9.63;;
11522;SDS011;70090;43.208;27.904;2024-03-22T07:30:31;15.70;;;10.37;;
11522;SDS011;70090;43.208;27.904;2024-03-22T07:32:58;11.63;;;9.50;;
11522;SDS011;70090;43.208;27.904;2024-03-22T07:35:26;9.63;;;7.67;;
11522;SDS011;70090;43.208;27.904;2024-03-22T07:37:52;13.97;;;9.43;;
11522;SDS011;70090;43.208;27.904;2024-03-22T07:40:19;17.23;;;10.30;;
11522;SDS011;70090;43.208;27.904;2024-03-22T07:42:45;14.20;;;9.43;;
11522;SDS011;70090;43.208;27.904;2024-03-22T07:45:12;10.50;;;8.67;;
11522;SDS011;70090;43.208;27.904;2024-03-22T07:47:39;10.63;;;7.83;;
11522;SDS011;70090;43.208;27.904;2024-03-22T07:50:09;9.90;;;8.00;;
11522;SDS011;70090;43.208;27.904;2024-03-22T07:52:35;10.03;;;7.23;;
11522;SDS011;70090;43.208;27.904;2024-03-22T07:55:03;11.37;;;6.07;;
11522;SDS011;70090;43.208;27.904;2024-03-22T07:57:29;9.70;;;5.90;;
11522;SDS011;70090;43.208;27.904;2024-03-22T07:59:57;6.50;;;5.83;;
11522;SDS011;70090;43.208;27.904;2024-03-22T08:02:23;6.93;;;6.23;;
11522;SDS011;70090;43.208;27.904;2024-03-22T08:04:50;7.70;;;6.10;;
11522;SDS011;70090;43.208;27.904;2024-03-22T08:07:17;10.90;;;7.43;;
11522;SDS011;70090;43.208;27.904;2024-03-22T08:09:44;11.27;;;7.40;;
11522;SDS011;70090;43.208;27.904;2024-03-22T08:12:10;8.67;;;7.00;;
11522;SDS011;70090;43.208;27.904;2024-03-22T08:14:38;8.90;;;7.87;;
11522;SDS011;70090;43.208;27.904;2024-03-22T08:17:04;10.93;;;8.53;;
11522;SDS011;70090;43.208;27.904;2024-03-22T08:19:31;9.23;;;7.40;;
11522;SDS011;70090;43.208;27.904;2024-03-22T08:21:57;9.77;;;8.33;;
11522;SDS011;70090;43.208;27.904;2024-03-22T08:24:26;10.57;;;8.53;;
11522;SDS011;70090;43.208;27.904;2024-03-22T08:26:52;10.57;;;7.97;;
11522;SDS011;70090;43.208;27.904;2024-03-22T08:29:19;10.87;;;7.53;;
11522;SDS011;70090;43.208;27.904;2024-03-22T08:31:45;9.73;;;6.87;;
11522;SDS011;70090;43.208;27.904;2024-03-22T08:34:12;8.80;;;7.37;;
11522;SDS011;70090;43.208;27.904;2024-03-22T08:36:38;11.47;;;8.90;;
11522;SDS011;70090;43.208;27.904;2024-03-22T08:39:05;11.53;;;9.23;;
11522;SDS011;70090;43.208;27.904;2024-03-22T08:41:36;9.90;;;8.23;;
11522;SDS011;70090;43.208;27.904;2024-03-22T08:44:04;10.47;;;7.40;;
11522;SDS011;70090;43.208;27.904;2024-03-22T08:46:30;9.20;;;7.40;;
11522;SDS011;70090;43.208;27.904;2024-03-22T08:48:57;8.93;;;7.80;;
11522;SDS011;70090;43.208;27.904;2024-03-22T08:51:23;12.30;;;8.80;;
11522;SDS011;70090;43.208;27.904;2024-03-22T08:53:51;12.47;;;8.77;;
11522;SDS011;70090;43.208;27.904;2024-03-22T08:56:17;7.77;;;6.93;;
11522;SDS011;70090;43.208;27.904;2024-03-22T08:58:45;15.07;;;10.30;;
11522;SDS011;70090;43.208;27.904;2024-03-22T09:01:11;9.53;;;8.20;;
11522;SDS011;70090;43.208;27.904;2024-03-22T09:03:38;8.40;;;7.40;;
11522;SDS011;70090;43.208;27.904;2024-03-22T09:06:05;9.23;;;7.50;;
11522;SDS011;70090;43.208;27.904;2024-03-22T09:08:32;10.87;;;7.40;;
11522;SDS011;70090;43.208;27.904;2024-03-22T09:10:59;9.90;;;7.50;;
11522;SDS011;70090;43.208;27.904;2024-03-22T09:13:26;8.97;;;7.33;;
11522;SDS011;70090;43.208;27.904;2024-03-22T09:15:57;8.37;;;6.80;;
11522;SDS011;70090;43.208;27.904;2024-03-22T09:18:24;7.60;;;6.80;;
11522;SDS011;70090;43.208;27.904;2024-03-22T09:20:50;12.33;;;9.50;;
11522;SDS011;70090;43.208;27.904;2024-03-22T09:23:18;9.03;;;7.67;;
11522;SDS011;70090;43.208;27.904;2024-03-22T09:25:44;7.03;;;6.33;;
11522;SDS011;70090;43.208;27.904;2024-03-22T09:28:11;10.97;;;8.07;;
11522;SDS011;70090;43.208;27.904;2024-03-22T09:30:37;8.33;;;7.27;;
11522;SDS011;70090;43.208;27.904;2024-03-22T09:33:06;14.10;;;10.40;;
11522;SDS011;70090;43.208;27.904;2024-03-22T09:35:33;8.53;;;7.20;;
11522;SDS011;70090;43.208;27.904;2024-03-22T09:38:00;6.53;;;5.83;;
11522;SDS011;70090;43.208;27.904;2024-03-22T09:40:27;7.90;;;6.57;;
11522;SDS011;70090;43.208;27.904;2024-03-22T09:42:54;7.60;;;6.00;;
11522;SDS011;70090;43.208;27.904;2024-03-22T09:45:27;8.90;;;6.53;;
11522;SDS011;70090;43.208;27.904;2024-03-22T09:47:56;6.77;;;5.60;;
11522;SDS011;70090;43.208;27.904;2024-03-22T09:50:24;8.57;;;6.13;;
11522;SDS011;70090;43.208;27.904;2024-03-22T09:52:52;8.87;;;6.73;;
11522;SDS011;70090;43.208;27.904;2024-03-22T09:55:19;11.43;;;6.80;;
11522;SDS011;70090;43.208;27.904;2024-03-22T09:57:49;6.87;;;6.03;;
11522;SDS011;70090;43.208;27.904;2024-03-22T10:00:17;6.40;;;5.70;;
11522;SDS011;70090;43.208;27.904;2024-03-22T10:02:46;5.83;;;5.20;;
11522;SDS011;70090;43.208;27.904;2024-03-22T10:05:13;9.10;;;6.30;;
11522;SDS011;70090;43.208;27.904;2024-03-22T10:07:41;7.43;;;6.60;;
11522;SDS011;70090;43.208;27.904;2024-03-22T10:10:09;6.93;;;6.20;;
11522;SDS011;70090;43.208;27.904;2024-03-22T10:12:36;8.73;;;7.10;;
11522;SDS011;70090;43.208;27.904;2024-03-22T10:15:02;7.40;;;6.20;;
11522;SDS011;70090;43.208;27.904;2024-03-22T10:17:34;5.83;;;5.13;;
11522;SDS011;70090;43.208;27.904;2024-03-22T10:20:00;5.70;;;5.10;;
11522;SDS011;70090;43.208;27.904;2024-03-22T10:22:27;6.20;;;5.37;;
11522;SDS011;70090;43.208;27.904;2024-03-22T10:24:55;7.77;;;6.07;;
11522;SDS011;70090;43.208;27.904;2024-03-22T10:27:26;5.50;;;5.00;;
11522;SDS011;70090;43.208;27.904;2024-03-22T10:29:52;6.23;;;5.10;;
11522;SDS011;70090;43.208;27.904;2024-03-22T10:32:19;7.13;;;5.60;;
11522;SDS011;70090;43.208;27.904;2024-03-22T10:34:46;7.30;;;5.87;;
11522;SDS011;70090;43.208;27.904;2024-03-22T10:37:15;6.37;;;4.83;;
11522;SDS011;70090;43.208;27.904;2024-03-22T10:39:42;10.20;;;7.43;;
11522;SDS011;70090;43.208;27.904;2024-03-22T10:42:10;5.90;;;5.07;;
11522;SDS011;70090;43.208;27.904;2024-03-22T10:44:37;7.77;;;4.90;;
11522;SDS011;70090;43.208;27.904;2024-03-22T10:47:04;6.90;;;6.00;;
11522;SDS011;70090;43.208;27.904;2024-03-22T10:49:36;8.27;;;6.03;;
11522;SDS011;70090;43.208;27.904;2024-03-22T10:52:04;6.37;;;5.50;;
11522;SDS011;70090;43.208;27.904;2024-03-22T10:54:35;6.37;;;5.20;;
11522;SDS011;70090;43.208;27.904;2024-03-22T10:57:06;8.67;;;5.97;;
11522;SDS011;70090;43.208;27.904;2024-03-22T10:59:38;6.50;;;5.47;;
11522;SDS011;70090;43.208;27.904;2024-03-22T11:02:10;6.83;;;5.67;;
11522;SDS011;70090;43.208;27.904;2024-03-22T11:04:36;7.60;;;6.50;;
11522;SDS011;70090;43.208;27.904;2024-03-22T11:07:03;8.60;;;7.37;;
11522;SDS011;70090;43.208;27.904;2024-03-22T11:09:30;8.27;;;7.17;;
11522;SDS011;70090;43.208;27.904;2024-03-22T11:11:57;11.53;;;8.60;;
11522;SDS011;70090;43.208;27.904;2024-03-22T11:14:24;6.67;;;5.50;;
11522;SDS011;70090;43.208;27.904;2024-03-22T11:16:53;7.37;;;5.60;;
11522;SDS011;70090;43.208;27.904;2024-03-22T11:19:19;6.70;;;6.00;;
11522;SDS011;70090;43.208;27.904;2024-03-22T11:21:46;6.80;;;5.90;;
11522;SDS011;70090;43.208;27.904;2024-03-22T11:24:12;8.20;;;6.10;;
11522;SDS011;70090;43.208;27.904;2024-03-22T11:26:39;6.40;;;5.80;;
11522;SDS011;70090;43.208;27.904;2024-03-22T11:29:05;11.37;;;9.83;;
11522;SDS011;70090;43.208;27.904;2024-03-22T11:31:33;9.20;;;7.00;;
11522;SDS011;70090;43.208;27.904;2024-03-22T11:34:01;8.97;;;7.37;;
11522;SDS011;70090;43.208;27.904;2024-03-22T11:36:29;11.77;;;6.30;;
11522;SDS011;70090;43.208;27.904;2024-03-22T11:38:55;7.53;;;5.63;;
11522;SDS011;70090;43.208;27.904;2024-03-22T11:41:23;6.17;;;5.57;;
11522;SDS011;70090;43.208;27.904;2024-03-22T11:43:51;6.27;;;5.53;;
11522;SDS011;70090;43.208;27.904;2024-03-22T11:46:19;6.17;;;5.57;;
11522;SDS011;70090;43.208;27.904;2024-03-22T11:48:50;6.53;;;5.83;;
11522;SDS011;70090;43.208;27.904;2024-03-22T11:51:19;8.23;;;6.63;;
11522;SDS011;70090;43.208;27.904;2024-03-22T11:53:49;8.87;;;6.60;;
11522;SDS011;70090;43.208;27.904;2024-03-22T11:56:17;8.37;;;6.80;;
11522;SDS011;70090;43.208;27.904;2024-03-22T11:58:45;10.40;;;7.33;;
11522;SDS011;70090;43.208;27.904;2024-03-22T12:01:13;10.17;;;7.70;;
11522;SDS011;70090;43.208;27.904;2024-03-22T12:03:40;7.17;;;5.93;;
11522;SDS011;70090;43.208;27.904;2024-03-22T12:06:09;6.17;;;5.50;;
11522;SDS011;70090;43.208;27.904;2024-03-22T12:08:37;11.33;;;7.40;;
11522;SDS011;70090;43.208;27.904;2024-03-22T12:11:06;7.03;;;5.57;;
11522;SDS011;70090;43.208;27.904;2024-03-22T12:13:33;6.00;;;5.40;;
11522;SDS011;70090;43.208;27.904;2024-03-22T12:16:00;7.83;;;6.43;;
11522;SDS011;70090;43.208;27.904;2024-03-22T12:18:26;7.40;;;6.17;;
11522;SDS011;70090;43.208;27.904;2024-03-22T12:20:54;6.13;;;5.53;;
11522;SDS011;70090;43.208;27.904;2024-03-22T12:23:20;10.90;;;9.17;;
11522;SDS011;70090;43.208;27.904;2024-03-22T12:25:48;5.80;;;5.20;;
11522;SDS011;70090;43.208;27.904;2024-03-22T12:28:15;6.70;;;6.03;;
11522;SDS011;70090;43.208;27.904;2024-03-22T12:30:42;14.63;;;6.50;;
11522;SDS011;70090;43.208;27.904;2024-03-22T12:33:08;7.40;;;6.00;;
11522;SDS011;70090;43.208;27.904;2024-03-22T12:35:36;6.50;;;5.80;;
11522;SDS011;70090;43.208;27.904;2024-03-22T12:38:02;10.57;;;8.70;;
11522;SDS011;70090;43.208;27.904;2024-03-22T12:40:30;8.50;;;7.43;;
11522;SDS011;70090;43.208;27.904;2024-03-22T12:42:59;6.73;;;5.43;;
11522;SDS011;70090;43.208;27.904;2024-03-22T12:45:26;4.80;;;4.23;;
11522;SDS011;70090;43.208;27.904;2024-03-22T12:47:52;9.30;;;7.10;;
11522;SDS011;70090;43.208;27.904;2024-03-22T12:50:19;6.47;;;5.20;;
11522;SDS011;70090;43.208;27.904;2024-03-22T12:52:45;6.33;;;5.13;;
11522;SDS011;70090;43.208;27.904;2024-03-22T12:55:12;5.73;;;4.70;;
11522;SDS011;70090;43.208;27.904;2024-03-22T12:57:38;5.77;;;4.90;;
11522;SDS011;70090;43.208;27.904;2024-03-22T13:00:07;5.23;;;4.73;;
11522;SDS011;70090;43.208;27.904;2024-03-22T13:02:38;6.07;;;4.57;;
11522;SDS011;70090;43.208;27.904;2024-03-22T13:05:06;5.97;;;4.80;;
11522;SDS011;70090;43.208;27.904;2024-03-22T13:07:32;7.63;;;5.40;;
11522;SDS011;70090;43.208;27.904;2024-03-22T13:09:59;6.57;;;5.10;;
11522;SDS011;70090;43.208;27.904;2024-03-22T13:12:25;6.07;;;5.17;;
11522;SDS011;70090;43.208;27.904;2024-03-22T13:14:53;5.80;;;5.20;;
11522;SDS011;70090;43.208;27.904;2024-03-22T13:17:21;5.70;;;4.20;;
11522;SDS011;70090;43.208;27.904;2024-03-22T13:19:48;5.70;;;5.10;;
11522;SDS011;70090;43.208;27.904;2024-03-22T13:22:15;6.00;;;4.73;;
11522;SDS011;70090;43.208;27.904;2024-03-22T13:24:43;5.30;;;4.80;;
11522;SDS011;70090;43.208;27.904;2024-03-22T13:27:09;8.47;;;5.23;;
11522;SDS011;70090;43.208;27.904;2024-03-22T13:29:37;5.40;;;4.50;;
11522;SDS011;70090;43.208;27.904;2024-03-22T13:32:04;5.10;;;4.60;;
11522;SDS011;70090;43.208;27.904;2024-03-22T13:34:34;5.57;;;4.50;;
11522;SDS011;70090;43.208;27.904;2024-03-22T13:37:00;5.30;;;4.77;;
11522;SDS011;70090;43.208;27.904;2024-03-22T13:39:27;5.13;;;4.33;;
11522;SDS011;70090;43.208;27.904;2024-03-22T13:41:54;7.03;;;4.37;;
11522;SDS011;70090;43.208;27.904;2024-03-22T13:44:22;5.43;;;4.90;;
11522;SDS011;70090;43.208;27.904;2024-03-22T13:46:49;5.80;;;5.30;;
11522;SDS011;70090;43.208;27.904;2024-03-22T13:49:17;7.70;;;5.00;;
11522;SDS011;70090;43.208;27.904;2024-03-22T13:51:47;6.33;;;5.30;;
11522;SDS011;70090;43.208;27.904;2024-03-22T13:54:14;6.47;;;5.27;;
11522;SDS011;70090;43.208;27.904;2024-03-22T13:56:40;5.80;;;4.80;;
11522;SDS011;70090;43.208;27.904;2024-03-22T13:59:08;5.93;;;4.80;;
11522;SDS011;70090;43.208;27.904;2024-03-22T14:01:34;6.87;;;5.13;;
11522;SDS011;70090;43.208;27.904;2024-03-22T14:04:01;5.97;;;5.00;;
11522;SDS011;70090;43.208;27.904;2024-03-22T14:06:28;6.40;;;4.80;;
11522;SDS011;70090;43.208;27.904;2024-03-22T14:08:58;19.67;;;6.27;;
11522;SDS011;70090;43.208;27.904;2024-03-22T14:11:26;6.80;;;4.73;;
11522;SDS011;70090;43.208;27.904;2024-03-22T14:13:55;6.70;;;4.60;;
11522;SDS011;70090;43.208;27.904;2024-03-22T14:16:22;6.57;;;5.20;;
11522;SDS011;70090;43.208;27.904;2024-03-22T14:18:49;40.27;;;9.13;;
11522;SDS011;70090;43.208;27.904;2024-03-22T14:21:15;10.87;;;6.40;;
11522;SDS011;70090;43.208;27.904;2024-03-22T14:23:44;7.23;;;5.37;;